sensor_id;sensor_type;location;lat;lon;timestamp;P1;durP1;ratioP1;P2;durP2;ratioP2
80584;SDS011;70137;56.482;9.154;2024-03-06T00:02:23;15.80;;;6.82;;
80584;SDS011;70137;56.482;9.154;2024-03-06T00:04:48;13.40;;;7.70;;
80584;SDS011;70137;56.482;9.154;2024-03-06T00:07:14;15.70;;;8.13;;
80584;SDS011;70137;56.482;9.154;2024-03-06T00:09:39;14.57;;;7.10;;
80584;SDS011;70137;56.482;9.154;2024-03-06T00:12:05;14.60;;;7.22;;
80584;SDS011;70137;56.482;9.154;2024-03-06T00:14:31;16.45;;;7.25;;
80584;SDS011;70137;56.482;9.154;2024-03-06T00:16:57;10.95;;;6.53;;
80584;SDS011;70137;56.482;9.154;2024-03-06T00:19:22;14.60;;;7.55;;
80584;SDS011;70137;56.482;9.154;2024-03-06T00:21:48;13.45;;;6.30;;
80584;SDS011;70137;56.482;9.154;2024-03-06T00:24:14;13.52;;;6.70;;
80584;SDS011;70137;56.482;9.154;2024-03-06T00:26:40;18.27;;;7.45;;
80584;SDS011;70137;56.482;9.154;2024-03-06T00:29:06;14.43;;;7.25;;
80584;SDS011;70137;56.482;9.154;2024-03-06T00:31:32;17.65;;;7.55;;
80584;SDS011;70137;56.482;9.154;2024-03-06T00:33:57;11.48;;;6.50;;
80584;SDS011;70137;56.482;9.154;2024-03-06T00:36:22;14.55;;;6.60;;
80584;SDS011;70137;56.482;9.154;2024-03-06T00:38:48;15.15;;;7.53;;
80584;SDS011;70137;56.482;9.154;2024-03-06T00:41:13;13.00;;;6.63;;
80584;SDS011;70137;56.482;9.154;2024-03-06T00:43:39;15.35;;;6.35;;
80584;SDS011;70137;56.482;9.154;2024-03-06T00:46:06;12.80;;;6.68;;
80584;SDS011;70137;56.482;9.154;2024-03-06T00:48:31;16.60;;;6.97;;
80584;SDS011;70137;56.482;9.154;2024-03-06T00:50:56;15.15;;;6.80;;
80584;SDS011;70137;56.482;9.154;2024-03-06T00:53:22;12.48;;;7.20;;
80584;SDS011;70137;56.482;9.154;2024-03-06T00:55:47;15.77;;;7.88;;
80584;SDS011;70137;56.482;9.154;2024-03-06T00:58:12;14.07;;;6.68;;
80584;SDS011;70137;56.482;9.154;2024-03-06T01:00:38;12.48;;;6.57;;
80584;SDS011;70137;56.482;9.154;2024-03-06T01:03:04;12.65;;;6.50;;
80584;SDS011;70137;56.482;9.154;2024-03-06T01:05:29;15.50;;;7.22;;
80584;SDS011;70137;56.482;9.154;2024-03-06T01:07:55;11.73;;;6.63;;
80584;SDS011;70137;56.482;9.154;2024-03-06T01:10:21;10.77;;;6.03;;
80584;SDS011;70137;56.482;9.154;2024-03-06T01:12:47;12.25;;;6.50;;
80584;SDS011;70137;56.482;9.154;2024-03-06T01:15:13;12.20;;;6.60;;
80584;SDS011;70137;56.482;9.154;2024-03-06T01:17:38;12.43;;;6.70;;
80584;SDS011;70137;56.482;9.154;2024-03-06T01:20:04;9.57;;;6.47;;
80584;SDS011;70137;56.482;9.154;2024-03-06T01:22:32;9.75;;;5.72;;
80584;SDS011;70137;56.482;9.154;2024-03-06T01:24:58;10.45;;;6.28;;
80584;SDS011;70137;56.482;9.154;2024-03-06T01:27:24;11.57;;;6.68;;
80584;SDS011;70137;56.482;9.154;2024-03-06T01:29:50;11.88;;;6.35;;
80584;SDS011;70137;56.482;9.154;2024-03-06T01:32:15;13.52;;;7.03;;
80584;SDS011;70137;56.482;9.154;2024-03-06T01:34:41;11.45;;;6.60;;
80584;SDS011;70137;56.482;9.154;2024-03-06T01:37:06;11.82;;;6.72;;
80584;SDS011;70137;56.482;9.154;2024-03-06T01:39:32;13.82;;;6.57;;
80584;SDS011;70137;56.482;9.154;2024-03-06T01:41:58;12.05;;;7.28;;
80584;SDS011;70137;56.482;9.154;2024-03-06T01:44:23;16.15;;;7.32;;
80584;SDS011;70137;56.482;9.154;2024-03-06T01:46:49;13.90;;;7.15;;
80584;SDS011;70137;56.482;9.154;2024-03-06T01:49:14;15.68;;;7.78;;
80584;SDS011;70137;56.482;9.154;2024-03-06T01:51:45;14.32;;;7.88;;
80584;SDS011;70137;56.482;9.154;2024-03-06T01:54:14;15.75;;;8.02;;
80584;SDS011;70137;56.482;9.154;2024-03-06T01:56:43;16.38;;;7.80;;
80584;SDS011;70137;56.482;9.154;2024-03-06T01:59:11;15.70;;;8.30;;
80584;SDS011;70137;56.482;9.154;2024-03-06T02:01:38;14.93;;;7.97;;
80584;SDS011;70137;56.482;9.154;2024-03-06T02:04:04;16.55;;;8.00;;
80584;SDS011;70137;56.482;9.154;2024-03-06T02:06:31;16.20;;;8.05;;
80584;SDS011;70137;56.482;9.154;2024-03-06T02:08:57;17.52;;;8.68;;
80584;SDS011;70137;56.482;9.154;2024-03-06T02:11:22;16.90;;;8.00;;
80584;SDS011;70137;56.482;9.154;2024-03-06T02:13:49;19.25;;;8.98;;
80584;SDS011;70137;56.482;9.154;2024-03-06T02:16:15;16.70;;;9.43;;
80584;SDS011;70137;56.482;9.154;2024-03-06T02:18:50;17.35;;;9.10;;
80584;SDS011;70137;56.482;9.154;2024-03-06T02:21:17;18.33;;;9.15;;
80584;SDS011;70137;56.482;9.154;2024-03-06T02:23:42;20.63;;;9.90;;
80584;SDS011;70137;56.482;9.154;2024-03-06T02:26:07;16.98;;;9.60;;
80584;SDS011;70137;56.482;9.154;2024-03-06T02:28:33;18.90;;;9.57;;
80584;SDS011;70137;56.482;9.154;2024-03-06T02:30:59;19.95;;;9.52;;
80584;SDS011;70137;56.482;9.154;2024-03-06T02:33:25;23.42;;;10.30;;
80584;SDS011;70137;56.482;9.154;2024-03-06T02:35:50;22.80;;;10.10;;
80584;SDS011;70137;56.482;9.154;2024-03-06T02:38:17;21.50;;;10.68;;
80584;SDS011;70137;56.482;9.154;2024-03-06T02:40:44;21.95;;;9.85;;
80584;SDS011;70137;56.482;9.154;2024-03-06T02:43:10;22.70;;;11.27;;
80584;SDS011;70137;56.482;9.154;2024-03-06T02:45:35;22.05;;;10.15;;
80584;SDS011;70137;56.482;9.154;2024-03-06T02:48:00;22.55;;;10.68;;
80584;SDS011;70137;56.482;9.154;2024-03-06T02:50:26;25.50;;;11.70;;
80584;SDS011;70137;56.482;9.154;2024-03-06T02:52:51;22.60;;;10.85;;
80584;SDS011;70137;56.482;9.154;2024-03-06T02:55:18;23.90;;;11.23;;
80584;SDS011;70137;56.482;9.154;2024-03-06T02:57:44;25.48;;;11.07;;
80584;SDS011;70137;56.482;9.154;2024-03-06T03:00:09;27.50;;;11.10;;
80584;SDS011;70137;56.482;9.154;2024-03-06T03:02:38;23.35;;;10.77;;
80584;SDS011;70137;56.482;9.154;2024-03-06T03:05:04;22.70;;;11.02;;
80584;SDS011;70137;56.482;9.154;2024-03-06T03:07:30;24.45;;;10.82;;
80584;SDS011;70137;56.482;9.154;2024-03-06T03:09:55;23.42;;;11.85;;
80584;SDS011;70137;56.482;9.154;2024-03-06T03:12:21;24.75;;;11.75;;
80584;SDS011;70137;56.482;9.154;2024-03-06T03:14:46;24.35;;;10.80;;
80584;SDS011;70137;56.482;9.154;2024-03-06T03:17:11;23.92;;;11.40;;
80584;SDS011;70137;56.482;9.154;2024-03-06T03:19:37;23.00;;;11.07;;
80584;SDS011;70137;56.482;9.154;2024-03-06T03:22:05;24.83;;;11.10;;
80584;SDS011;70137;56.482;9.154;2024-03-06T03:24:30;24.10;;;11.18;;
80584;SDS011;70137;56.482;9.154;2024-03-06T03:26:56;23.38;;;10.15;;
80584;SDS011;70137;56.482;9.154;2024-03-06T03:29:21;23.30;;;10.52;;
80584;SDS011;70137;56.482;9.154;2024-03-06T03:31:47;21.90;;;10.32;;
80584;SDS011;70137;56.482;9.154;2024-03-06T03:34:12;24.63;;;11.10;;
80584;SDS011;70137;56.482;9.154;2024-03-06T03:36:42;22.50;;;10.88;;
80584;SDS011;70137;56.482;9.154;2024-03-06T03:39:10;21.70;;;10.20;;
80584;SDS011;70137;56.482;9.154;2024-03-06T03:41:47;24.67;;;10.13;;
80584;SDS011;70137;56.482;9.154;2024-03-06T03:44:13;21.60;;;10.52;;
80584;SDS011;70137;56.482;9.154;2024-03-06T03:46:44;21.85;;;10.27;;
80584;SDS011;70137;56.482;9.154;2024-03-06T03:49:10;22.17;;;10.55;;
80584;SDS011;70137;56.482;9.154;2024-03-06T03:51:36;24.95;;;10.90;;
80584;SDS011;70137;56.482;9.154;2024-03-06T03:54:03;20.92;;;10.20;;
80584;SDS011;70137;56.482;9.154;2024-03-06T03:56:29;21.45;;;9.70;;
80584;SDS011;70137;56.482;9.154;2024-03-06T03:58:55;21.35;;;9.10;;
80584;SDS011;70137;56.482;9.154;2024-03-06T04:01:24;19.33;;;9.30;;
80584;SDS011;70137;56.482;9.154;2024-03-06T04:03:50;16.15;;;8.85;;
80584;SDS011;70137;56.482;9.154;2024-03-06T04:06:16;15.55;;;8.48;;
80584;SDS011;70137;56.482;9.154;2024-03-06T04:08:42;15.80;;;8.88;;
80584;SDS011;70137;56.482;9.154;2024-03-06T04:11:08;15.10;;;7.45;;
80584;SDS011;70137;56.482;9.154;2024-03-06T04:13:37;15.77;;;7.40;;
80584;SDS011;70137;56.482;9.154;2024-03-06T04:16:03;15.75;;;7.72;;
80584;SDS011;70137;56.482;9.154;2024-03-06T04:18:29;14.40;;;8.07;;
80584;SDS011;70137;56.482;9.154;2024-03-06T04:21:04;13.85;;;7.13;;
80584;SDS011;70137;56.482;9.154;2024-03-06T04:23:30;12.18;;;6.57;;
80584;SDS011;70137;56.482;9.154;2024-03-06T04:25:56;14.13;;;7.35;;
80584;SDS011;70137;56.482;9.154;2024-03-06T04:28:21;13.63;;;7.68;;
80584;SDS011;70137;56.482;9.154;2024-03-06T04:30:47;11.00;;;6.68;;
80584;SDS011;70137;56.482;9.154;2024-03-06T04:33:12;14.77;;;6.60;;
80584;SDS011;70137;56.482;9.154;2024-03-06T04:35:40;14.90;;;6.82;;
80584;SDS011;70137;56.482;9.154;2024-03-06T04:38:05;13.45;;;6.70;;
80584;SDS011;70137;56.482;9.154;2024-03-06T04:40:31;12.90;;;6.72;;
80584;SDS011;70137;56.482;9.154;2024-03-06T04:42:57;12.38;;;6.88;;
80584;SDS011;70137;56.482;9.154;2024-03-06T04:45:22;11.80;;;6.68;;
80584;SDS011;70137;56.482;9.154;2024-03-06T04:47:48;12.70;;;6.80;;
80584;SDS011;70137;56.482;9.154;2024-03-06T04:50:13;14.55;;;7.28;;
80584;SDS011;70137;56.482;9.154;2024-03-06T04:52:44;11.93;;;7.30;;
80584;SDS011;70137;56.482;9.154;2024-03-06T04:55:10;14.25;;;7.25;;
80584;SDS011;70137;56.482;9.154;2024-03-06T04:57:36;13.70;;;7.65;;
80584;SDS011;70137;56.482;9.154;2024-03-06T05:00:03;12.13;;;7.32;;
80584;SDS011;70137;56.482;9.154;2024-03-06T05:02:34;13.70;;;7.88;;
80584;SDS011;70137;56.482;9.154;2024-03-06T05:05:01;13.52;;;6.80;;
80584;SDS011;70137;56.482;9.154;2024-03-06T05:07:29;16.45;;;7.60;;
80584;SDS011;70137;56.482;9.154;2024-03-06T05:09:55;15.10;;;7.15;;
80584;SDS011;70137;56.482;9.154;2024-03-06T05:12:22;15.57;;;7.68;;
80584;SDS011;70137;56.482;9.154;2024-03-06T05:14:48;12.85;;;7.35;;
80584;SDS011;70137;56.482;9.154;2024-03-06T05:17:14;13.60;;;7.38;;
80584;SDS011;70137;56.482;9.154;2024-03-06T05:19:39;15.43;;;7.55;;
80584;SDS011;70137;56.482;9.154;2024-03-06T05:22:04;13.13;;;7.53;;
80584;SDS011;70137;56.482;9.154;2024-03-06T05:24:30;15.98;;;7.55;;
80584;SDS011;70137;56.482;9.154;2024-03-06T05:26:56;12.73;;;6.57;;
80584;SDS011;70137;56.482;9.154;2024-03-06T05:29:21;11.10;;;7.03;;
80584;SDS011;70137;56.482;9.154;2024-03-06T05:31:47;14.10;;;7.47;;
80584;SDS011;70137;56.482;9.154;2024-03-06T05:34:14;14.50;;;7.78;;
80584;SDS011;70137;56.482;9.154;2024-03-06T05:36:39;16.52;;;7.57;;
80584;SDS011;70137;56.482;9.154;2024-03-06T05:39:05;14.05;;;6.75;;
80584;SDS011;70137;56.482;9.154;2024-03-06T05:41:32;14.52;;;7.35;;
80584;SDS011;70137;56.482;9.154;2024-03-06T05:43:58;14.55;;;6.65;;
80584;SDS011;70137;56.482;9.154;2024-03-06T05:46:23;12.70;;;6.95;;
80584;SDS011;70137;56.482;9.154;2024-03-06T05:48:49;14.38;;;7.05;;
80584;SDS011;70137;56.482;9.154;2024-03-06T05:51:16;15.43;;;7.55;;
80584;SDS011;70137;56.482;9.154;2024-03-06T05:53:44;15.55;;;6.88;;
80584;SDS011;70137;56.482;9.154;2024-03-06T05:56:10;15.75;;;7.43;;
80584;SDS011;70137;56.482;9.154;2024-03-06T05:58:38;13.02;;;7.07;;
80584;SDS011;70137;56.482;9.154;2024-03-06T06:01:04;14.13;;;7.35;;
80584;SDS011;70137;56.482;9.154;2024-03-06T06:03:29;13.65;;;7.32;;
80584;SDS011;70137;56.482;9.154;2024-03-06T06:05:55;13.95;;;6.75;;
80584;SDS011;70137;56.482;9.154;2024-03-06T06:08:21;14.10;;;7.05;;
80584;SDS011;70137;56.482;9.154;2024-03-06T06:10:46;17.23;;;7.43;;
80584;SDS011;70137;56.482;9.154;2024-03-06T06:13:12;15.43;;;8.13;;
80584;SDS011;70137;56.482;9.154;2024-03-06T06:15:37;17.15;;;8.00;;
80584;SDS011;70137;56.482;9.154;2024-03-06T06:18:11;16.25;;;7.85;;
80584;SDS011;70137;56.482;9.154;2024-03-06T06:27:03;14.55;;;7.68;;
80584;SDS011;70137;56.482;9.154;2024-03-06T06:32:27;20.50;;;8.10;;
80584;SDS011;70137;56.482;9.154;2024-03-06T06:35:01;14.13;;;8.03;;
80584;SDS011;70137;56.482;9.154;2024-03-06T06:40:19;15.60;;;8.45;;
80584;SDS011;70137;56.482;9.154;2024-03-06T06:42:45;18.75;;;9.10;;
80584;SDS011;70137;56.482;9.154;2024-03-06T06:45:20;18.00;;;9.07;;
80584;SDS011;70137;56.482;9.154;2024-03-06T06:47:49;17.83;;;8.80;;
80584;SDS011;70137;56.482;9.154;2024-03-06T06:53:42;17.02;;;9.18;;
80584;SDS011;70137;56.482;9.154;2024-03-06T06:56:43;18.48;;;9.15;;
80584;SDS011;70137;56.482;9.154;2024-03-06T07:02:14;20.65;;;9.55;;
80584;SDS011;70137;56.482;9.154;2024-03-06T07:04:53;20.77;;;9.25;;
80584;SDS011;70137;56.482;9.154;2024-03-06T07:07:29;20.70;;;9.18;;
80584;SDS011;70137;56.482;9.154;2024-03-06T07:10:01;20.67;;;9.63;;
80584;SDS011;70137;56.482;9.154;2024-03-06T07:12:28;21.25;;;10.23;;
80584;SDS011;70137;56.482;9.154;2024-03-06T07:14:54;20.08;;;9.15;;
80584;SDS011;70137;56.482;9.154;2024-03-06T07:17:23;21.08;;;9.40;;
80584;SDS011;70137;56.482;9.154;2024-03-06T07:19:51;26.55;;;10.15;;
80584;SDS011;70137;56.482;9.154;2024-03-06T07:25:23;23.73;;;10.23;;
80584;SDS011;70137;56.482;9.154;2024-03-06T07:28:33;23.83;;;10.52;;
80584;SDS011;70137;56.482;9.154;2024-03-06T07:31:43;28.45;;;10.40;;
80584;SDS011;70137;56.482;9.154;2024-03-06T07:34:22;25.55;;;10.15;;
80584;SDS011;70137;56.482;9.154;2024-03-06T07:37:28;25.77;;;9.82;;
80584;SDS011;70137;56.482;9.154;2024-03-06T07:40:36;25.40;;;10.25;;
80584;SDS011;70137;56.482;9.154;2024-03-06T07:43:12;23.38;;;9.30;;
80584;SDS011;70137;56.482;9.154;2024-03-06T07:49:22;24.85;;;9.55;;
80584;SDS011;70137;56.482;9.154;2024-03-06T07:52:14;25.15;;;9.55;;
80584;SDS011;70137;56.482;9.154;2024-03-06T08:14:57;21.45;;;8.55;;
80584;SDS011;70137;56.482;9.154;2024-03-06T08:17:44;22.30;;;9.27;;
80584;SDS011;70137;56.482;9.154;2024-03-06T08:20:40;21.35;;;9.80;;
80584;SDS011;70137;56.482;9.154;2024-03-06T08:23:15;20.05;;;8.70;;
80584;SDS011;70137;56.482;9.154;2024-03-06T08:25:40;16.25;;;8.88;;
80584;SDS011;70137;56.482;9.154;2024-03-06T08:28:06;23.15;;;9.30;;
80584;SDS011;70137;56.482;9.154;2024-03-06T08:30:31;22.65;;;9.68;;
80584;SDS011;70137;56.482;9.154;2024-03-06T08:32:57;18.60;;;9.25;;
80584;SDS011;70137;56.482;9.154;2024-03-06T08:35:23;19.55;;;8.57;;
80584;SDS011;70137;56.482;9.154;2024-03-06T08:37:49;22.35;;;9.48;;
80584;SDS011;70137;56.482;9.154;2024-03-06T08:40:18;21.27;;;10.10;;
80584;SDS011;70137;56.482;9.154;2024-03-06T08:42:44;21.65;;;10.45;;
80584;SDS011;70137;56.482;9.154;2024-03-06T08:45:10;25.08;;;9.88;;
80584;SDS011;70137;56.482;9.154;2024-03-06T08:47:36;23.92;;;9.98;;
80584;SDS011;70137;56.482;9.154;2024-03-06T08:50:02;23.40;;;10.15;;
80584;SDS011;70137;56.482;9.154;2024-03-06T08:52:28;23.75;;;9.38;;
80584;SDS011;70137;56.482;9.154;2024-03-06T08:54:56;22.17;;;9.75;;
80584;SDS011;70137;56.482;9.154;2024-03-06T08:57:22;25.83;;;9.95;;
80584;SDS011;70137;56.482;9.154;2024-03-06T08:59:56;26.02;;;10.05;;
80584;SDS011;70137;56.482;9.154;2024-03-06T09:05:18;26.90;;;9.88;;
80584;SDS011;70137;56.482;9.154;2024-03-06T09:07:44;22.77;;;9.40;;
80584;SDS011;70137;56.482;9.154;2024-03-06T09:10:30;19.85;;;9.73;;
80584;SDS011;70137;56.482;9.154;2024-03-06T09:13:24;22.08;;;9.70;;
80584;SDS011;70137;56.482;9.154;2024-03-06T09:22:41;34.17;;;10.90;;
80584;SDS011;70137;56.482;9.154;2024-03-06T09:25:26;24.05;;;11.05;;
80584;SDS011;70137;56.482;9.154;2024-03-06T09:28:05;29.15;;;10.57;;
80584;SDS011;70137;56.482;9.154;2024-03-06T09:30:34;30.23;;;11.45;;
80584;SDS011;70137;56.482;9.154;2024-03-06T09:33:02;28.65;;;11.15;;
80584;SDS011;70137;56.482;9.154;2024-03-06T09:35:27;27.83;;;11.77;;
80584;SDS011;70137;56.482;9.154;2024-03-06T09:37:53;26.17;;;11.55;;
80584;SDS011;70137;56.482;9.154;2024-03-06T09:40:22;27.17;;;12.80;;
80584;SDS011;70137;56.482;9.154;2024-03-06T09:42:53;30.02;;;11.65;;
80584;SDS011;70137;56.482;9.154;2024-03-06T09:45:27;30.15;;;11.45;;
80584;SDS011;70137;56.482;9.154;2024-03-06T09:47:55;30.45;;;12.48;;
80584;SDS011;70137;56.482;9.154;2024-03-06T09:50:22;24.95;;;11.48;;
80584;SDS011;70137;56.482;9.154;2024-03-06T09:52:53;28.58;;;11.00;;
80584;SDS011;70137;56.482;9.154;2024-03-06T09:55:21;22.33;;;11.60;;
80584;SDS011;70137;56.482;9.154;2024-03-06T09:57:51;25.40;;;12.63;;
80584;SDS011;70137;56.482;9.154;2024-03-06T10:00:16;23.27;;;11.40;;
80584;SDS011;70137;56.482;9.154;2024-03-06T10:02:51;22.38;;;10.10;;
80584;SDS011;70137;56.482;9.154;2024-03-06T10:05:23;21.30;;;10.65;;
80584;SDS011;70137;56.482;9.154;2024-03-06T10:07:58;23.75;;;10.90;;
80584;SDS011;70137;56.482;9.154;2024-03-06T10:10:26;23.67;;;10.48;;
80584;SDS011;70137;56.482;9.154;2024-03-06T10:12:56;18.63;;;9.90;;
80584;SDS011;70137;56.482;9.154;2024-03-06T10:15:22;23.23;;;9.70;;
80584;SDS011;70137;56.482;9.154;2024-03-06T10:21:11;18.90;;;8.65;;
80584;SDS011;70137;56.482;9.154;2024-03-06T10:23:52;17.85;;;9.23;;
80584;SDS011;70137;56.482;9.154;2024-03-06T10:26:26;19.02;;;9.23;;
80584;SDS011;70137;56.482;9.154;2024-03-06T10:28:58;19.85;;;9.73;;
80584;SDS011;70137;56.482;9.154;2024-03-06T10:31:29;21.67;;;10.15;;
80584;SDS011;70137;56.482;9.154;2024-03-06T10:33:55;21.35;;;9.30;;
80584;SDS011;70137;56.482;9.154;2024-03-06T10:36:20;16.05;;;8.73;;
80584;SDS011;70137;56.482;9.154;2024-03-06T10:38:47;15.45;;;8.57;;
80584;SDS011;70137;56.482;9.154;2024-03-06T10:41:16;18.77;;;9.88;;
80584;SDS011;70137;56.482;9.154;2024-03-06T10:43:47;21.60;;;9.48;;
80584;SDS011;70137;56.482;9.154;2024-03-06T10:46:19;16.58;;;9.05;;
80584;SDS011;70137;56.482;9.154;2024-03-06T10:48:46;20.00;;;9.00;;
80584;SDS011;70137;56.482;9.154;2024-03-06T10:51:14;18.95;;;9.18;;
80584;SDS011;70137;56.482;9.154;2024-03-06T10:53:42;17.33;;;9.35;;
80584;SDS011;70137;56.482;9.154;2024-03-06T10:56:09;18.65;;;9.60;;
80584;SDS011;70137;56.482;9.154;2024-03-06T10:58:35;18.90;;;10.35;;
80584;SDS011;70137;56.482;9.154;2024-03-06T11:01:03;21.35;;;9.25;;
80584;SDS011;70137;56.482;9.154;2024-03-06T11:03:31;17.83;;;9.77;;
80584;SDS011;70137;56.482;9.154;2024-03-06T11:05:57;17.73;;;9.68;;
80584;SDS011;70137;56.482;9.154;2024-03-06T11:08:22;20.00;;;9.60;;
80584;SDS011;70137;56.482;9.154;2024-03-06T11:10:50;20.58;;;10.00;;
80584;SDS011;70137;56.482;9.154;2024-03-06T11:15:48;19.35;;;10.52;;
80584;SDS011;70137;56.482;9.154;2024-03-06T11:20:58;20.00;;;9.60;;
80584;SDS011;70137;56.482;9.154;2024-03-06T11:23:27;19.35;;;8.63;;
80584;SDS011;70137;56.482;9.154;2024-03-06T11:31:18;22.50;;;9.90;;
80584;SDS011;70137;56.482;9.154;2024-03-06T11:33:55;17.80;;;8.75;;
80584;SDS011;70137;56.482;9.154;2024-03-06T11:36:22;18.42;;;8.95;;
80584;SDS011;70137;56.482;9.154;2024-03-06T11:39:06;20.85;;;10.23;;
80584;SDS011;70137;56.482;9.154;2024-03-06T11:57:34;21.80;;;10.48;;
80584;SDS011;70137;56.482;9.154;2024-03-06T12:00:07;18.85;;;9.20;;
80584;SDS011;70137;56.482;9.154;2024-03-06T12:02:41;20.13;;;9.63;;
80584;SDS011;70137;56.482;9.154;2024-03-06T12:05:08;21.85;;;9.18;;
80584;SDS011;70137;56.482;9.154;2024-03-06T12:07:48;21.35;;;9.80;;
80584;SDS011;70137;56.482;9.154;2024-03-06T12:10:17;20.98;;;9.65;;
80584;SDS011;70137;56.482;9.154;2024-03-06T12:12:45;18.58;;;9.55;;
80584;SDS011;70137;56.482;9.154;2024-03-06T12:15:12;18.05;;;8.70;;
80584;SDS011;70137;56.482;9.154;2024-03-06T12:17:49;20.13;;;9.73;;
80584;SDS011;70137;56.482;9.154;2024-03-06T12:20:20;18.88;;;10.27;;
80584;SDS011;70137;56.482;9.154;2024-03-06T12:23:28;19.83;;;9.77;;
80584;SDS011;70137;56.482;9.154;2024-03-06T12:26:07;18.05;;;8.82;;
80584;SDS011;70137;56.482;9.154;2024-03-06T12:29:09;18.77;;;9.77;;
80584;SDS011;70137;56.482;9.154;2024-03-06T12:32:37;19.10;;;9.75;;
80584;SDS011;70137;56.482;9.154;2024-03-06T12:42:08;17.42;;;9.63;;
80584;SDS011;70137;56.482;9.154;2024-03-06T12:44:33;17.35;;;8.90;;
80584;SDS011;70137;56.482;9.154;2024-03-06T12:46:59;22.02;;;10.18;;
80584;SDS011;70137;56.482;9.154;2024-03-06T12:49:25;18.13;;;9.68;;
80584;SDS011;70137;56.482;9.154;2024-03-06T12:51:51;19.75;;;10.05;;
80584;SDS011;70137;56.482;9.154;2024-03-06T12:54:17;19.05;;;9.40;;
80584;SDS011;70137;56.482;9.154;2024-03-06T12:56:44;15.80;;;9.00;;
80584;SDS011;70137;56.482;9.154;2024-03-06T12:59:09;17.48;;;9.48;;
80584;SDS011;70137;56.482;9.154;2024-03-06T13:01:35;16.88;;;8.75;;
80584;SDS011;70137;56.482;9.154;2024-03-06T13:04:01;16.00;;;9.07;;
80584;SDS011;70137;56.482;9.154;2024-03-06T13:06:26;19.63;;;9.55;;
80584;SDS011;70137;56.482;9.154;2024-03-06T13:08:53;14.52;;;8.20;;
80584;SDS011;70137;56.482;9.154;2024-03-06T13:11:18;14.00;;;7.88;;
80584;SDS011;70137;56.482;9.154;2024-03-06T13:13:44;17.08;;;8.95;;
80584;SDS011;70137;56.482;9.154;2024-03-06T13:16:09;18.40;;;9.98;;
80584;SDS011;70137;56.482;9.154;2024-03-06T13:18:36;18.65;;;9.23;;
80584;SDS011;70137;56.482;9.154;2024-03-06T13:21:02;16.67;;;8.32;;
80584;SDS011;70137;56.482;9.154;2024-03-06T13:23:27;14.65;;;8.10;;
80584;SDS011;70137;56.482;9.154;2024-03-06T13:25:53;17.83;;;8.48;;
80584;SDS011;70137;56.482;9.154;2024-03-06T13:28:18;17.00;;;8.82;;
80584;SDS011;70137;56.482;9.154;2024-03-06T13:30:46;17.02;;;8.63;;
80584;SDS011;70137;56.482;9.154;2024-03-06T13:33:11;16.45;;;8.48;;
80584;SDS011;70137;56.482;9.154;2024-03-06T13:35:37;13.30;;;7.95;;
80584;SDS011;70137;56.482;9.154;2024-03-06T13:38:02;14.48;;;7.20;;
80584;SDS011;70137;56.482;9.154;2024-03-06T13:40:28;14.77;;;7.70;;
80584;SDS011;70137;56.482;9.154;2024-03-06T13:42:53;14.15;;;8.50;;
80584;SDS011;70137;56.482;9.154;2024-03-06T13:45:19;17.63;;;8.02;;
80584;SDS011;70137;56.482;9.154;2024-03-06T13:47:44;14.88;;;8.35;;
80584;SDS011;70137;56.482;9.154;2024-03-06T13:50:10;16.52;;;9.02;;
80584;SDS011;70137;56.482;9.154;2024-03-06T13:52:38;15.40;;;8.38;;
80584;SDS011;70137;56.482;9.154;2024-03-06T13:55:03;14.45;;;8.00;;
80584;SDS011;70137;56.482;9.154;2024-03-06T13:57:30;17.45;;;7.93;;
80584;SDS011;70137;56.482;9.154;2024-03-06T14:00:00;15.18;;;8.35;;
80584;SDS011;70137;56.482;9.154;2024-03-06T14:02:37;17.48;;;7.97;;
80584;SDS011;70137;56.482;9.154;2024-03-06T14:05:03;14.93;;;8.52;;
80584;SDS011;70137;56.482;9.154;2024-03-06T14:07:29;19.67;;;9.20;;
80584;SDS011;70137;56.482;9.154;2024-03-06T14:09:54;16.30;;;8.80;;
80584;SDS011;70137;56.482;9.154;2024-03-06T14:12:22;15.50;;;8.40;;
80584;SDS011;70137;56.482;9.154;2024-03-06T14:14:47;15.00;;;8.15;;
80584;SDS011;70137;56.482;9.154;2024-03-06T14:17:13;13.32;;;8.07;;
80584;SDS011;70137;56.482;9.154;2024-03-06T14:19:39;15.70;;;8.30;;
80584;SDS011;70137;56.482;9.154;2024-03-06T14:22:05;16.58;;;8.40;;
80584;SDS011;70137;56.482;9.154;2024-03-06T14:24:31;14.70;;;8.52;;
80584;SDS011;70137;56.482;9.154;2024-03-06T14:26:57;15.38;;;8.85;;
80584;SDS011;70137;56.482;9.154;2024-03-06T14:29:22;16.75;;;8.45;;
80584;SDS011;70137;56.482;9.154;2024-03-06T14:31:48;16.83;;;8.55;;
80584;SDS011;70137;56.482;9.154;2024-03-06T14:34:13;15.93;;;8.95;;
80584;SDS011;70137;56.482;9.154;2024-03-06T14:36:39;16.08;;;8.93;;
80584;SDS011;70137;56.482;9.154;2024-03-06T14:39:04;15.25;;;8.15;;
80584;SDS011;70137;56.482;9.154;2024-03-06T14:41:30;17.85;;;8.73;;
80584;SDS011;70137;56.482;9.154;2024-03-06T14:43:55;14.60;;;8.25;;
80584;SDS011;70137;56.482;9.154;2024-03-06T14:46:20;14.75;;;7.90;;
80584;SDS011;70137;56.482;9.154;2024-03-06T14:48:46;16.02;;;8.55;;
80584;SDS011;70137;56.482;9.154;2024-03-06T14:51:11;15.13;;;7.93;;
80584;SDS011;70137;56.482;9.154;2024-03-06T14:53:38;13.80;;;7.55;;
80584;SDS011;70137;56.482;9.154;2024-03-06T14:56:04;17.48;;;7.88;;
80584;SDS011;70137;56.482;9.154;2024-03-06T14:58:30;15.05;;;7.85;;
80584;SDS011;70137;56.482;9.154;2024-03-06T15:00:55;15.90;;;7.82;;
80584;SDS011;70137;56.482;9.154;2024-03-06T15:03:20;16.42;;;8.10;;
80584;SDS011;70137;56.482;9.154;2024-03-06T15:05:46;13.20;;;8.23;;
80584;SDS011;70137;56.482;9.154;2024-03-06T15:08:11;14.45;;;7.43;;
80584;SDS011;70137;56.482;9.154;2024-03-06T15:10:37;18.60;;;7.95;;
80584;SDS011;70137;56.482;9.154;2024-03-06T15:13:03;13.18;;;7.32;;
80584;SDS011;70137;56.482;9.154;2024-03-06T15:15:28;14.63;;;7.18;;
80584;SDS011;70137;56.482;9.154;2024-03-06T15:17:56;13.90;;;7.93;;
80584;SDS011;70137;56.482;9.154;2024-03-06T15:20:21;12.88;;;7.00;;
80584;SDS011;70137;56.482;9.154;2024-03-06T15:22:47;13.00;;;7.78;;
80584;SDS011;70137;56.482;9.154;2024-03-06T15:25:12;17.35;;;8.00;;
80584;SDS011;70137;56.482;9.154;2024-03-06T15:27:38;13.88;;;7.82;;
80584;SDS011;70137;56.482;9.154;2024-03-06T15:30:05;11.93;;;6.60;;
80584;SDS011;70137;56.482;9.154;2024-03-06T15:32:36;18.05;;;7.45;;
80584;SDS011;70137;56.482;9.154;2024-03-06T15:35:02;14.38;;;7.78;;
80584;SDS011;70137;56.482;9.154;2024-03-06T15:37:28;14.90;;;7.72;;
80584;SDS011;70137;56.482;9.154;2024-03-06T15:39:55;14.82;;;8.13;;
80584;SDS011;70137;56.482;9.154;2024-03-06T15:42:21;14.00;;;7.30;;
80584;SDS011;70137;56.482;9.154;2024-03-06T15:44:47;16.45;;;8.00;;
80584;SDS011;70137;56.482;9.154;2024-03-06T15:47:13;12.85;;;7.20;;
80584;SDS011;70137;56.482;9.154;2024-03-06T15:49:39;15.70;;;8.10;;
80584;SDS011;70137;56.482;9.154;2024-03-06T15:52:05;14.57;;;7.68;;
80584;SDS011;70137;56.482;9.154;2024-03-06T15:54:31;18.10;;;8.55;;
80584;SDS011;70137;56.482;9.154;2024-03-06T15:56:56;14.80;;;8.00;;
80584;SDS011;70137;56.482;9.154;2024-03-06T15:59:23;17.05;;;8.55;;
80584;SDS011;70137;56.482;9.154;2024-03-06T16:01:48;15.95;;;8.30;;
80584;SDS011;70137;56.482;9.154;2024-03-06T16:04:13;15.05;;;8.27;;
80584;SDS011;70137;56.482;9.154;2024-03-06T16:06:39;15.95;;;8.30;;
80584;SDS011;70137;56.482;9.154;2024-03-06T16:09:05;17.05;;;9.02;;
80584;SDS011;70137;56.482;9.154;2024-03-06T16:11:30;17.58;;;8.63;;